createdAt,value
2023-03-18T00:00:13.147Z,14.02
2023-03-18T00:03:15.865Z,11.50
2023-03-18T00:06:20.497Z,9.75
2023-03-18T00:09:25.500Z,10.75
2023-03-18T00:12:28.013Z,9.13
2023-03-18T00:15:30.325Z,13.90
2023-03-18T00:18:35.657Z,8.60
2023-03-18T00:21:37.917Z,9.93
2023-03-18T00:24:43.192Z,11.07
2023-03-18T00:27:48.529Z,9.52
2023-03-18T00:30:51.701Z,10.85
2023-03-18T00:33:56.219Z,9.55
2023-03-18T00:37:01.430Z,9.73
2023-03-18T00:40:10.594Z,7.88
2023-03-18T00:43:12.939Z,6.93
2023-03-18T00:46:28.630Z,8.73
2023-03-18T00:49:31.180Z,13.77
2023-03-18T00:52:37.616Z,8.45
2023-03-18T00:55:40.976Z,11.75
2023-03-18T00:58:52.321Z,12.15
2023-03-18T01:01:54.793Z,11.85
2023-03-18T01:04:59.468Z,9.85
2023-03-18T01:08:03.123Z,11.32
2023-03-18T01:11:06.216Z,8.93
2023-03-18T01:14:08.797Z,10.27
2023-03-18T01:17:11.311Z,12.07
2023-03-18T01:20:17.167Z,9.70
2023-03-18T01:23:21.589Z,11.10
2023-03-18T01:26:26.195Z,9.90
2023-03-18T01:29:32.625Z,7.50
2023-03-18T01:32:36.019Z,9.77
2023-03-18T01:35:38.619Z,7.90
2023-03-18T01:38:42.409Z,9.40
2023-03-18T01:41:48.846Z,8.98
2023-03-18T01:45:34.772Z,10.23
2023-03-18T01:48:39.898Z,9.52
2023-03-18T01:51:51.048Z,10.10
2023-03-18T01:55:05.530Z,10.38
2023-03-18T01:58:14.680Z,9.63
2023-03-18T02:01:30.217Z,11.65
2023-03-18T02:04:52.290Z,11.93
2023-03-18T02:07:59.769Z,14.82
2023-03-18T02:11:05.420Z,13.95
2023-03-18T02:14:14.334Z,12.38
2023-03-18T02:17:23.781Z,15.27
2023-03-18T02:20:32.296Z,12.80
2023-03-18T02:24:01.228Z,12.52
2023-03-18T02:27:26.153Z,10.20
2023-03-18T02:30:35.396Z,10.00
2023-03-18T02:33:42.682Z,13.75
2023-03-18T02:36:47.644Z,10.93
2023-03-18T02:39:52.152Z,13.40
2023-03-18T02:42:58.470Z,12.15
2023-03-18T02:46:35.518Z,11.93
2023-03-18T02:49:37.861Z,10.75
2023-03-18T02:52:42.733Z,16.35
2023-03-18T02:55:48.140Z,11.15
2023-03-18T02:58:51.800Z,9.07
2023-03-18T03:01:57.216Z,10.55
2023-03-18T03:05:06.845Z,10.00
2023-03-18T03:08:10.116Z,11.48
2023-03-18T03:11:20.706Z,11.70
2023-03-18T03:14:29.754Z,10.55
2023-03-18T03:17:35.873Z,13.07
2023-03-18T03:20:39.138Z,10.05
2023-03-18T03:23:44.838Z,9.02
2023-03-18T03:26:51.430Z,11.07
2023-03-18T03:29:56.508Z,13.05
2023-03-18T03:33:00.362Z,12.40
2023-03-18T03:36:05.125Z,14.48
2023-03-18T03:39:12.438Z,14.98
2023-03-18T03:42:17.170Z,12.70
2023-03-18T03:45:22.232Z,11.23
2023-03-18T03:48:27.205Z,11.30
2023-03-18T03:51:29.483Z,10.35
2023-03-18T03:54:34.471Z,13.55
2023-03-18T03:57:42.317Z,14.68
2023-03-18T04:00:44.957Z,12.35
2023-03-18T04:03:49.680Z,10.85
2023-03-18T04:10:00.535Z,12.07
2023-03-18T04:13:04.125Z,11.02
2023-03-18T04:16:09.682Z,12.27
2023-03-18T04:19:14.298Z,12.48
2023-03-18T04:22:16.749Z,14.45
2023-03-18T04:25:19.891Z,14.57
2023-03-18T04:28:25.710Z,12.57
2023-03-18T04:31:28.488Z,14.00
2023-03-18T04:34:38.639Z,14.48
2023-03-18T04:37:41.622Z,13.60
2023-03-18T04:40:46.447Z,14.85
2023-03-18T04:43:49.562Z,15.55
2023-03-18T04:46:55.935Z,13.45
2023-03-18T04:50:01.682Z,15.85
2023-03-18T04:53:04.292Z,14.23
2023-03-18T04:56:09.044Z,13.60
2023-03-18T04:59:27.782Z,13.55
2023-03-18T05:02:33.713Z,15.75
2023-03-18T05:05:38.562Z,12.82
2023-03-18T05:08:44.722Z,17.42
2023-03-18T05:11:47.676Z,18.65
2023-03-18T05:15:12.119Z,15.23
2023-03-18T05:18:21.577Z,14.85
2023-03-18T05:21:27.637Z,14.32
2023-03-18T05:24:32.304Z,11.90
2023-03-18T05:27:38.131Z,12.10
2023-03-18T05:30:47.467Z,13.52
2023-03-18T05:33:56.226Z,12.60
2023-03-18T05:37:04.422Z,13.38
2023-03-18T05:43:18.578Z,9.65
2023-03-18T05:46:29.044Z,14.15
2023-03-18T05:49:52.349Z,10.30
2023-03-18T05:53:03.396Z,12.02
2023-03-18T05:56:10.541Z,11.70
2023-03-18T05:59:14.212Z,12.43
2023-03-18T06:02:21.380Z,13.13
2023-03-18T06:05:26.888Z,13.98
2023-03-18T06:08:29.430Z,10.02
2023-03-18T06:11:32.309Z,10.85
2023-03-18T06:14:39.695Z,9.07
2023-03-18T06:17:42.939Z,11.43
2023-03-18T06:20:47.492Z,11.48
2023-03-18T06:23:49.762Z,13.80
2023-03-18T06:26:52.539Z,11.73
2023-03-18T06:29:55.854Z,11.25
2023-03-18T06:32:58.397Z,15.45
2023-03-18T06:36:05.664Z,14.60
2023-03-18T06:39:08.542Z,13.18
2023-03-18T06:42:13.533Z,11.82
2023-03-18T06:45:41.968Z,16.42
2023-03-18T06:48:49.668Z,13.05
2023-03-18T06:52:02.364Z,10.10
2023-03-18T06:55:06.488Z,15.63
2023-03-18T06:58:15.675Z,15.48
2023-03-18T07:01:36.202Z,16.98
2023-03-18T07:04:41.391Z,15.98
2023-03-18T07:07:50.556Z,10.82
2023-03-18T07:10:57.792Z,11.93
2023-03-18T07:14:02.507Z,16.13
2023-03-18T07:17:10.775Z,15.32
2023-03-18T07:20:20.764Z,17.85
2023-03-18T07:23:23.065Z,18.10
2023-03-18T07:26:25.980Z,16.38
2023-03-18T07:29:30.448Z,11.73
2023-03-18T07:32:38.794Z,15.27
2023-03-18T07:35:41.771Z,13.23
2023-03-18T07:38:44.083Z,15.02
2023-03-18T07:41:46.380Z,11.35
2023-03-18T07:44:56.316Z,12.15
2023-03-18T07:47:58.856Z,11.35
2023-03-18T07:51:04.080Z,16.45
2023-03-18T07:54:11.104Z,13.85
2023-03-18T07:57:16.058Z,12.50
2023-03-18T08:00:18.975Z,12.60
2023-03-18T08:03:23.703Z,10.93
2023-03-18T08:06:26.342Z,12.57
2023-03-18T08:09:30.984Z,12.45
2023-03-18T08:12:45.370Z,13.63
2023-03-18T08:15:56.672Z,9.90
2023-03-18T08:19:01.892Z,6.00
2023-03-18T08:22:06.519Z,7.57
2023-03-18T08:25:12.424Z,7.72
2023-03-18T08:28:14.762Z,9.30
2023-03-18T08:31:19.845Z,6.43
2023-03-18T08:34:22.165Z,7.85
2023-03-18T08:37:24.752Z,9.48
2023-03-18T08:40:28.001Z,8.68
2023-03-18T08:43:33.013Z,9.10
2023-03-18T08:46:35.392Z,8.40
2023-03-18T08:49:42.711Z,8.85
2023-03-18T08:52:52.215Z,8.40
2023-03-18T08:55:54.559Z,7.25
2023-03-18T08:58:56.839Z,9.43
2023-03-18T09:01:59.108Z,8.57
2023-03-18T09:05:01.364Z,8.57
2023-03-18T09:08:06.637Z,8.23
2023-03-18T09:11:11.948Z,7.38
2023-03-18T09:14:18.742Z,11.00
2023-03-18T09:17:32.006Z,6.57
2023-03-18T09:20:41.647Z,8.00
2023-03-18T09:23:44.489Z,6.95
2023-03-18T09:26:47.744Z,8.73
2023-03-18T09:29:52.320Z,7.53
2023-03-18T09:32:59.695Z,7.38
2023-03-18T09:36:06.717Z,11.30
2023-03-18T09:39:11.752Z,8.80
2023-03-18T09:42:34.784Z,7.75
2023-03-18T09:45:51.408Z,8.45
2023-03-18T09:49:22.243Z,7.85
2023-03-18T09:52:33.185Z,7.28
2023-03-18T09:55:49.082Z,8.75
2023-03-18T09:58:58.580Z,8.15
2023-03-18T10:02:01.855Z,7.95
2023-03-18T10:05:16.723Z,7.53
2023-03-18T10:08:31.114Z,8.57
2023-03-18T10:11:41.852Z,7.93
2023-03-18T10:15:04.751Z,7.78
2023-03-18T10:18:22.170Z,7.18
2023-03-18T10:21:46.888Z,9.57
2023-03-18T10:25:03.490Z,7.75
2023-03-18T10:28:17.933Z,7.53
2023-03-18T10:31:23.745Z,9.75
2023-03-18T10:34:37.430Z,9.23
2023-03-18T10:38:02.298Z,10.45
2023-03-18T10:41:44.303Z,7.05
2023-03-18T10:44:51.581Z,7.80
2023-03-18T10:48:06.005Z,8.30
2023-03-18T10:51:18.569Z,8.27
2023-03-18T10:54:33.695Z,7.05
2023-03-18T10:57:38.921Z,11.35
2023-03-18T11:00:41.415Z,6.18
2023-03-18T11:03:56.626Z,8.20
2023-03-18T11:07:03.207Z,7.43
2023-03-18T11:10:23.932Z,8.18
2023-03-18T11:13:29.052Z,7.10
2023-03-18T11:16:39.617Z,7.80
2023-03-18T11:20:02.301Z,5.22
2023-03-18T11:23:17.801Z,8.05
2023-03-18T11:26:29.442Z,7.82
2023-03-18T11:29:34.974Z,6.68
2023-03-18T11:32:39.737Z,6.65
2023-03-18T11:35:58.486Z,7.45
2023-03-18T11:39:06.282Z,5.90
2023-03-18T11:45:22.495Z,5.97
2023-03-18T11:48:41.239Z,6.95
2023-03-18T11:51:52.454Z,5.78
2023-03-18T11:55:19.146Z,5.00
2023-03-18T11:58:43.233Z,9.00
2023-03-18T12:01:54.693Z,9.10
2023-03-18T12:04:57.222Z,9.77
2023-03-18T12:08:46.205Z,11.68
2023-03-18T12:12:13.217Z,8.38
2023-03-18T12:15:28.194Z,9.05
2023-03-18T12:18:57.721Z,8.48
2023-03-18T12:22:04.267Z,10.00
2023-03-18T12:25:54.158Z,8.35
2023-03-18T12:29:21.240Z,9.63
2023-03-18T12:32:26.473Z,15.55
2023-03-18T12:35:49.935Z,7.85
2023-03-18T12:38:56.237Z,10.18
2023-03-18T12:42:01.670Z,8.57
2023-03-18T12:45:25.366Z,9.95
2023-03-18T12:48:44.022Z,8.25
2023-03-18T12:51:54.845Z,7.95
2023-03-18T12:55:04.367Z,7.75
2023-03-18T12:58:30.393Z,8.02
2023-03-18T13:01:49.445Z,8.65
2023-03-18T13:04:59.903Z,12.07
2023-03-18T13:08:14.646Z,9.27
2023-03-18T13:11:44.767Z,8.77
2023-03-18T13:18:19.933Z,8.10
2023-03-18T13:21:31.387Z,9.35
2023-03-18T13:25:09.380Z,8.52
2023-03-18T13:28:40.249Z,9.70
2023-03-18T13:32:06.741Z,8.30
2023-03-18T13:35:31.576Z,7.85
2023-03-18T13:38:55.292Z,10.82
2023-03-18T13:42:18.580Z,8.82
2023-03-18T13:45:33.758Z,7.35
2023-03-18T13:48:36.850Z,8.57
2023-03-18T13:51:40.008Z,8.20
2023-03-18T13:54:47.265Z,9.77
2023-03-18T13:58:18.351Z,8.57
2023-03-18T14:01:23.959Z,9.20
2023-03-18T14:04:47.660Z,7.47
2023-03-18T14:11:28.716Z,6.03
2023-03-18T14:14:48.574Z,7.20
2023-03-18T14:17:58.449Z,7.72
2023-03-18T14:21:02.645Z,7.28
2023-03-18T14:24:17.189Z,10.02
2023-03-18T14:27:22.748Z,6.03
2023-03-18T14:30:34.682Z,6.57
2023-03-18T14:33:51.361Z,6.30
2023-03-18T14:36:56.859Z,6.30
2023-03-18T14:40:14.797Z,6.30
2023-03-18T14:43:27.112Z,7.63
2023-03-18T14:46:36.573Z,6.85
2023-03-18T14:49:53.827Z,7.82
2023-03-18T14:53:24.621Z,5.85
2023-03-18T14:56:36.006Z,4.55
2023-03-18T14:59:43.007Z,3.97
2023-03-18T15:02:54.137Z,4.82
2023-03-18T15:06:03.847Z,4.28
2023-03-18T15:09:10.079Z,4.10
2023-03-18T15:12:24.219Z,4.82
2023-03-18T15:15:29.507Z,5.85
2023-03-18T15:18:38.774Z,4.57
2023-03-18T15:21:41.193Z,4.85
2023-03-18T15:24:43.835Z,3.63
2023-03-18T15:27:49.838Z,6.50
2023-03-18T15:30:56.454Z,5.60
2023-03-18T15:34:21.601Z,5.57
2023-03-18T15:37:39.276Z,3.97
2023-03-18T15:40:58.101Z,5.57
2023-03-18T15:44:16.547Z,4.30
2023-03-18T15:47:28.121Z,4.85
2023-03-18T15:50:35.057Z,5.50
2023-03-18T15:53:47.827Z,4.63
2023-03-18T15:56:55.257Z,3.95
2023-03-18T16:00:00.347Z,5.90
2023-03-18T16:03:05.963Z,4.57
2023-03-18T16:06:10.818Z,6.30
2023-03-18T16:09:21.414Z,5.68
2023-03-18T16:12:29.824Z,4.72
2023-03-18T16:15:37.553Z,4.72
2023-03-18T16:18:43.401Z,6.15
2023-03-18T16:21:45.730Z,5.63
2023-03-18T16:24:50.348Z,6.32
2023-03-18T16:27:59.036Z,5.00
2023-03-18T16:31:01.736Z,5.38
2023-03-18T16:34:12.403Z,4.38
2023-03-18T16:37:35.009Z,5.63
2023-03-18T16:40:37.373Z,6.10
2023-03-18T16:43:43.226Z,5.13
2023-03-18T16:46:56.528Z,7.70
2023-03-18T16:50:01.350Z,8.27
2023-03-18T16:53:11.504Z,17.08
2023-03-18T16:56:22.401Z,33.47
2023-03-18T16:59:29.483Z,12.50
2023-03-18T17:02:34.117Z,12.63
2023-03-18T17:05:38.536Z,11.23
2023-03-18T17:08:45.866Z,10.60
2023-03-18T17:11:50.897Z,16.27
2023-03-18T17:14:57.569Z,10.75
2023-03-18T17:18:01.684Z,7.80
2023-03-18T17:21:09.820Z,6.03
2023-03-18T17:27:19.544Z,5.82
2023-03-18T17:30:23.226Z,8.02
2023-03-18T17:33:31.215Z,6.90
2023-03-18T17:36:36.210Z,7.55
2023-03-18T17:39:43.213Z,7.50
2023-03-18T17:42:47.663Z,7.15
2023-03-18T17:45:50.159Z,7.47
2023-03-18T17:48:52.466Z,5.90
2023-03-18T17:51:58.730Z,5.57
2023-03-18T17:55:02.137Z,6.53
2023-03-18T17:58:15.812Z,7.68
2023-03-18T18:01:26.702Z,7.55
2023-03-18T18:04:31.540Z,7.95
2023-03-18T18:07:33.996Z,5.72
2023-03-18T18:10:36.277Z,8.07
2023-03-18T18:13:41.378Z,7.32
2023-03-18T18:16:44.290Z,9.77
2023-03-18T18:19:49.119Z,10.80
2023-03-18T18:22:54.972Z,11.98
2023-03-18T18:26:02.115Z,14.20
2023-03-18T18:29:12.848Z,10.30
2023-03-18T18:32:15.678Z,11.50
2023-03-18T18:35:25.680Z,11.05
2023-03-18T18:38:28.791Z,12.35
2023-03-18T18:41:34.040Z,12.73
2023-03-18T18:44:38.849Z,10.13
2023-03-18T18:47:41.759Z,8.82
2023-03-18T18:50:47.191Z,9.48
2023-03-18T18:53:57.047Z,9.95
2023-03-18T18:57:02.030Z,11.52
2023-03-18T19:00:09.824Z,9.20
2023-03-18T19:03:21.381Z,8.63
2023-03-18T19:06:31.692Z,9.32
2023-03-18T19:09:34.974Z,8.15
2023-03-18T19:12:41.781Z,9.57
2023-03-18T19:15:48.721Z,12.13
2023-03-18T19:18:51.153Z,11.35
2023-03-18T19:21:57.591Z,11.00
2023-03-18T19:25:02.569Z,13.70
2023-03-18T19:28:05.127Z,10.43
2023-03-18T19:31:14.751Z,10.63
2023-03-18T19:34:18.679Z,11.13
2023-03-18T19:37:31.008Z,11.55
2023-03-18T19:40:35.786Z,9.90
2023-03-18T19:43:41.466Z,11.73
2023-03-18T19:46:45.591Z,11.02
2023-03-18T19:49:47.986Z,13.10
2023-03-18T19:52:51.011Z,10.48
2023-03-18T19:55:57.995Z,9.85
2023-03-18T19:59:00.591Z,12.77
2023-03-18T20:02:05.051Z,10.32
2023-03-18T20:05:16.922Z,11.05
2023-03-18T20:11:24.016Z,13.68
2023-03-18T20:14:27.632Z,11.73
2023-03-18T20:17:35.887Z,11.15
2023-03-18T20:20:46.687Z,11.65
2023-03-18T20:23:50.805Z,10.43
2023-03-18T20:26:55.773Z,12.55
2023-03-18T20:30:01.539Z,12.65
2023-03-18T20:33:05.143Z,12.68
2023-03-18T20:36:17.155Z,11.63
2023-03-18T20:39:21.298Z,12.07
2023-03-18T20:42:23.728Z,12.65
2023-03-18T20:45:26.941Z,12.15
2023-03-18T20:48:29.397Z,13.32
2023-03-18T20:51:38.503Z,11.95
2023-03-18T20:54:40.872Z,13.88
2023-03-18T20:57:43.346Z,13.18
2023-03-18T21:00:47.090Z,12.30
2023-03-18T21:03:52.157Z,12.73
2023-03-18T21:06:54.620Z,11.98
2023-03-18T21:09:56.999Z,14.02
2023-03-18T21:13:04.575Z,12.30
2023-03-18T21:16:13.059Z,12.25
2023-03-18T21:19:17.581Z,13.43
2023-03-18T21:22:33.371Z,13.35
2023-03-18T21:25:40.464Z,15.52
2023-03-18T21:28:45.146Z,13.63
2023-03-18T21:31:48.646Z,14.05
2023-03-18T21:34:52.680Z,15.45
2023-03-18T21:37:58.531Z,13.55
2023-03-18T21:41:02.133Z,14.90
2023-03-18T21:44:06.832Z,14.27
2023-03-18T21:47:20.213Z,13.27
2023-03-18T21:50:26.730Z,13.45
2023-03-18T21:53:29.161Z,14.68
2023-03-18T21:56:31.508Z,16.45
2023-03-18T21:59:33.781Z,14.70
2023-03-18T22:02:37.649Z,15.93
2023-03-18T22:05:46.158Z,13.25
2023-03-18T22:08:48.958Z,15.27
2023-03-18T22:11:51.226Z,14.75
2023-03-18T22:15:01.792Z,18.70
2023-03-18T22:18:05.571Z,15.02
2023-03-18T22:21:20.000Z,17.48
2023-03-18T22:24:27.531Z,15.63
2023-03-18T22:27:31.456Z,16.63
2023-03-18T22:30:34.554Z,16.50
2023-03-18T22:33:39.818Z,16.25
2023-03-18T22:36:46.657Z,13.73
2023-03-18T22:39:52.123Z,14.98
2023-03-18T22:42:58.091Z,16.20
2023-03-18T22:46:06.231Z,16.52
2023-03-18T22:49:12.994Z,14.25
2023-03-18T22:52:31.139Z,14.13
2023-03-18T22:58:40.697Z,13.02
2023-03-18T23:01:45.553Z,13.20
2023-03-18T23:04:49.486Z,11.15
2023-03-18T23:07:52.549Z,14.43
2023-03-18T23:10:59.061Z,14.80
2023-03-18T23:14:04.210Z,12.23
2023-03-18T23:17:09.075Z,14.48
2023-03-18T23:20:15.717Z,13.73
2023-03-18T23:23:18.690Z,12.82
2023-03-18T23:26:21.745Z,12.55
2023-03-18T23:29:24.078Z,14.85
2023-03-18T23:32:31.184Z,14.32
2023-03-18T23:35:33.983Z,14.52
2023-03-18T23:38:37.848Z,14.55
2023-03-18T23:41:46.652Z,12.82
2023-03-18T23:44:49.186Z,13.95
2023-03-18T23:47:51.733Z,13.63
2023-03-18T23:50:54.073Z,16.60
2023-03-18T23:53:58.611Z,13.85
2023-03-18T23:57:07.690Z,16.35
